Time;durP1;ratioP1;P1;durP2;ratioP2;P2;SDS_P1;SDS_P2;PMS_P1;PMS_P2;Temp;Humidity;BMP_temperature;BMP_pressure;BME280_temperature;BME280_humidity;BME280_pressure;Samples;Min_cycle;Max_cycle;Signal;HPM_P1;HPM_P2
2022/12/13 00:00:17;;;;;;;111.43;46.78;;;;;;;;;;4989853;28;20033;-81
2022/12/13 00:02:46;;;;;;;108.22;43.25;;;;;;;;;;4985751;28;20377;-81
2022/12/13 00:05:13;;;;;;;104.55;43.95;;;;;;;;;;4988642;28;20042;-81
2022/12/13 00:07:41;;;;;;;118.97;43.45;;;;;;;;;;5004847;28;20403;-81
2022/12/13 00:10:07;;;;;;;115.97;43.53;;;;;;;;;;4985414;28;20092;-80
2022/12/13 00:12:33;;;;;;;103.35;42.00;;;;;;;;;;4989884;28;20023;-80
2022/12/13 00:14:59;;;;;;;124.82;44.38;;;;;;;;;;4988806;28;20073;-81
2022/12/13 00:17:25;;;;;;;114.07;42.95;;;;;;;;;;4990945;28;20030;-80
2022/12/13 00:19:51;;;;;;;112.15;42.65;;;;;;;;;;4990114;28;20423;-81
2022/12/13 00:22:18;;;;;;;113.22;43.17;;;;;;;;;;5006730;28;20674;-81
2022/12/13 00:24:44;;;;;;;111.65;43.30;;;;;;;;;;4986648;28;20042;-80
2022/12/13 00:27:10;;;;;;;116.25;43.25;;;;;;;;;;4990072;28;20045;-80
2022/12/13 00:29:36;;;;;;;107.80;40.50;;;;;;;;;;4980070;28;20031;-80
2022/12/13 00:32:02;;;;;;;104.57;40.05;;;;;;;;;;4989454;28;20114;-80
2022/12/13 00:34:29;;;;;;;109.22;41.22;;;;;;;;;;5003634;28;20050;-80
2022/12/13 00:36:57;;;;;;;111.43;40.30;;;;;;;;;;4985016;28;20085;-81
2022/12/13 00:39:25;;;;;;;99.30;40.95;;;;;;;;;;4989540;28;20046;-80
2022/12/13 00:41:51;;;;;;;107.10;40.40;;;;;;;;;;5005952;28;20035;-80
2022/12/13 00:44:18;;;;;;;104.95;42.58;;;;;;;;;;4996218;28;20034;-80
2022/12/13 00:46:44;;;;;;;106.72;42.17;;;;;;;;;;4995137;28;20042;-80
2022/12/13 00:49:12;;;;;;;116.60;43.20;;;;;;;;;;4996605;28;20495;-80
2022/12/13 00:51:38;;;;;;;105.03;41.35;;;;;;;;;;5000082;28;20105;-80
2022/12/13 00:54:05;;;;;;;113.60;41.50;;;;;;;;;;4998191;28;20015;-80
2022/12/13 00:56:32;;;;;;;105.55;41.22;;;;;;;;;;5010342;28;20040;-80
2022/12/13 00:59:17;;;;;;;92.78;38.35;;;;;;;;;;5006813;28;20019;-80
2022/12/13 01:01:44;;;;;;;108.43;39.53;;;;;;;;;;5026651;28;20049;-79
2022/12/13 01:04:29;;;;;;;98.47;40.60;;;;;;;;;;5021097;28;20507;-82
2022/12/13 01:06:55;;;;;;;94.38;38.33;;;;;;;;;;4999356;28;20109;-79
2022/12/13 01:09:25;;;;;;;105.18;38.88;;;;;;;;;;5003880;28;20018;-80
2022/12/13 01:11:55;;;;;;;101.32;38.67;;;;;;;;;;5004981;28;20038;-78
2022/12/13 01:14:21;;;;;;;106.75;38.35;;;;;;;;;;5027820;28;20106;-80
2022/12/13 01:16:48;;;;;;;108.43;38.67;;;;;;;;;;5013601;28;20451;-79
2022/12/13 01:19:14;;;;;;;95.15;37.22;;;;;;;;;;5000400;28;20076;-80
2022/12/13 01:21:40;;;;;;;100.72;39.10;;;;;;;;;;4995937;28;20042;-81
2022/12/13 01:24:07;;;;;;;102.18;37.90;;;;;;;;;;4987213;28;20030;-80
2022/12/13 01:26:33;;;;;;;105.10;38.55;;;;;;;;;;4972513;28;20035;-79
2022/12/13 01:29:04;;;;;;;97.60;37.28;;;;;;;;;;4990810;28;20026;-79
2022/12/13 01:31:30;;;;;;;95.20;37.43;;;;;;;;;;4991955;28;20030;-80
2022/12/13 01:33:57;;;;;;;98.57;38.80;;;;;;;;;;4989767;28;20034;-80
2022/12/13 01:36:23;;;;;;;98.93;37.00;;;;;;;;;;5005287;28;20038;-80
2022/12/13 01:38:49;;;;;;;89.05;36.78;;;;;;;;;;4981528;28;20126;-81
2022/12/13 01:41:16;;;;;;;93.88;37.90;;;;;;;;;;4969211;28;20484;-80
2022/12/13 01:43:43;;;;;;;89.35;35.97;;;;;;;;;;4978497;28;20038;-80
2022/12/13 01:46:10;;;;;;;90.63;35.80;;;;;;;;;;4985752;28;20070;-80
2022/12/13 01:48:39;;;;;;;92.03;35.50;;;;;;;;;;4983819;28;20039;-80
2022/12/13 01:51:07;;;;;;;90.32;35.22;;;;;;;;;;4986853;28;20492;-80
2022/12/13 01:53:35;;;;;;;92.07;35.00;;;;;;;;;;4987403;28;20503;-79
2022/12/13 01:56:04;;;;;;;86.38;36.83;;;;;;;;;;5001076;28;20030;-80
2022/12/13 01:58:31;;;;;;;93.22;36.00;;;;;;;;;;4988777;28;20037;-81
2022/12/13 02:00:58;;;;;;;93.32;36.92;;;;;;;;;;4986747;28;20503;-80
2022/12/13 02:03:25;;;;;;;97.43;37.22;;;;;;;;;;4987120;28;20027;-80
2022/12/13 02:06:05;;;;;;;96.88;36.55;;;;;;;;;;5000857;28;20042;-80
2022/12/13 02:08:36;;;;;;;92.40;37.15;;;;;;;;;;4989395;28;20038;-80
2022/12/13 02:11:02;;;;;;;;;;;;;;;;;;5001472;28;20049;-80
2022/12/13 02:13:28;;;;;;;87.53;33.45;;;;;;;;;;4985450;28;19928;-80
2022/12/13 02:16:01;;;;;;;84.55;35.50;;;;;;;;;;4969334;28;20141;-80
2022/12/13 02:18:40;;;;;;;92.88;35.53;;;;;;;;;;4988724;28;20026;-79
2022/12/13 02:21:06;;;;;;;86.80;34.03;;;;;;;;;;4997912;28;20026;-80
2022/12/13 02:23:40;;;;;;;87.25;34.30;;;;;;;;;;4987516;28;20061;-79
2022/12/13 02:26:25;;;;;;;91.20;34.13;;;;;;;;;;4987149;28;20023;-80
2022/12/13 02:29:03;;;;;;;82.05;32.70;;;;;;;;;;4999401;28;20203;-79
2022/12/13 02:31:50;;;;;;;81.53;32.92;;;;;;;;;;4988672;28;20034;-80
2022/12/13 02:34:24;;;;;;;88.97;34.15;;;;;;;;;;4986121;28;20038;-79
2022/12/13 02:37:06;;;;;;;91.28;36.05;;;;;;;;;;4988694;28;20038;-79
2022/12/13 02:39:35;;;;;;;86.40;34.78;;;;;;;;;;4984926;28;20039;-79
2022/12/13 02:42:07;;;;;;;85.80;35.08;;;;;;;;;;4986924;28;20100;-79
2022/12/13 02:44:42;;;;;;;91.22;34.97;;;;;;;;;;4986561;28;20053;-79
2022/12/13 02:47:21;;;;;;;88.30;35.10;;;;;;;;;;4987868;28;20402;-79
2022/12/13 02:49:48;;;;;;;91.20;33.00;;;;;;;;;;4987661;28;20042;-79
2022/12/13 02:52:16;;;;;;;85.63;33.05;;;;;;;;;;4985805;28;20023;-80
2022/12/13 02:54:42;;;;;;;84.40;34.40;;;;;;;;;;4977892;28;20321;-79
2022/12/13 02:57:27;;;;;;;75.00;32.40;;;;;;;;;;5004356;28;20433;-80
2022/12/13 02:59:53;;;;;;;79.97;32.70;;;;;;;;;;4986899;28;20499;-80
2022/12/13 03:02:31;;;;;;;86.95;33.63;;;;;;;;;;4989731;28;20113;-80
2022/12/13 03:08:01;;;;;;;88.80;32.80;;;;;;;;;;4993674;28;20039;-80
2022/12/13 03:10:48;;;;;;;84.95;33.50;;;;;;;;;;4984271;28;20381;-80
2022/12/13 03:13:35;;;;;;;92.47;34.25;;;;;;;;;;4969532;28;20153;-83
2022/12/13 03:16:06;;;;;;;82.97;34.03;;;;;;;;;;4985369;28;20431;-79
2022/12/13 03:18:32;;;;;;;;;;;;;;;;;;5004414;28;20050;-80
2022/12/13 03:21:03;;;;;;;87.95;32.85;;;;;;;;;;4991660;28;19945;-79
2022/12/13 03:23:30;;;;;;;84.82;34.13;;;;;;;;;;5005671;28;20037;-79
2022/12/13 03:26:01;;;;;;;85.13;33.42;;;;;;;;;;4991697;28;20120;-80
2022/12/13 03:28:27;;;;;;;90.97;33.65;;;;;;;;;;5005544;28;20053;-80
2022/12/13 03:30:55;;;;;;;89.00;34.08;;;;;;;;;;4985771;28;20022;-80
2022/12/13 03:33:21;;;;;;;78.90;31.15;;;;;;;;;;4994358;28;20476;-80
2022/12/13 03:35:48;;;;;;;85.85;32.95;;;;;;;;;;4993226;28;20065;-79
2022/12/13 03:38:15;;;;;;;82.47;32.35;;;;;;;;;;4991285;28;20095;-80
2022/12/13 03:40:41;;;;;;;86.97;33.28;;;;;;;;;;4990664;28;20050;-80
2022/12/13 03:43:07;;;;;;;84.72;33.72;;;;;;;;;;4987610;28;20034;-79
2022/12/13 03:45:34;;;;;;;81.20;32.22;;;;;;;;;;4989972;28;20515;-79
2022/12/13 03:48:00;;;;;;;87.03;33.15;;;;;;;;;;4993564;28;20038;-80
2022/12/13 03:50:26;;;;;;;80.70;31.23;;;;;;;;;;4990785;28;20603;-79
2022/12/13 03:52:57;;;;;;;86.28;32.55;;;;;;;;;;4987612;28;20093;-79
2022/12/13 03:55:23;;;;;;;84.80;33.90;;;;;;;;;;4987210;28;20046;-80
2022/12/13 03:57:49;;;;;;;82.57;31.73;;;;;;;;;;4989177;28;20035;-80
2022/12/13 04:00:16;;;;;;;83.72;32.28;;;;;;;;;;4990684;28;20039;-81
2022/12/13 04:02:42;;;;;;;93.03;32.90;;;;;;;;;;4987820;28;20042;-79
2022/12/13 04:05:08;;;;;;;77.97;32.92;;;;;;;;;;4988962;28;20177;-80
2022/12/13 04:07:34;;;;;;;97.00;33.28;;;;;;;;;;4988487;28;20025;-80
2022/12/13 04:10:01;;;;;;;88.80;32.92;;;;;;;;;;4988743;28;20042;-80
2022/12/13 04:15:12;;;;;;;81.70;31.45;;;;;;;;;;4982478;28;20038;-80
2022/12/13 04:17:38;;;;;;;82.15;30.52;;;;;;;;;;4993690;28;20034;-81
2022/12/13 04:20:05;;;;;;;83.15;32.58;;;;;;;;;;4991436;28;20030;-81
2022/12/13 04:22:31;;;;;;;86.03;31.27;;;;;;;;;;5007549;28;20030;-79
2022/12/13 04:24:57;;;;;;;87.18;31.73;;;;;;;;;;4986206;28;20046;-79
2022/12/13 04:27:23;;;;;;;89.13;32.22;;;;;;;;;;4996739;28;20038;-80
2022/12/13 04:29:49;;;;;;;82.60;32.85;;;;;;;;;;4986128;28;20033;-80
2022/12/13 04:32:15;;;;;;;88.55;32.05;;;;;;;;;;4989272;28;20031;-80
2022/12/13 04:34:41;;;;;;;85.18;32.40;;;;;;;;;;4993472;28;20135;-80
2022/12/13 04:37:08;;;;;;;84.60;32.00;;;;;;;;;;4991280;28;20057;-80
2022/12/13 04:39:35;;;;;;;78.18;30.77;;;;;;;;;;4999938;28;20030;-80
2022/12/13 04:42:01;;;;;;;74.50;30.98;;;;;;;;;;4990465;28;20041;-80
2022/12/13 04:44:27;;;;;;;82.68;33.05;;;;;;;;;;4991926;28;20038;-79
2022/12/13 04:46:53;;;;;;;86.97;31.23;;;;;;;;;;4989264;28;20121;-79
2022/12/13 04:49:19;;;;;;;81.53;31.85;;;;;;;;;;4994742;28;20372;-80
2022/12/13 04:51:45;;;;;;;81.32;32.53;;;;;;;;;;5000788;28;20031;-81
2022/12/13 04:54:12;;;;;;;86.40;31.75;;;;;;;;;;4991323;28;20030;-81
2022/12/13 04:56:38;;;;;;;78.60;30.42;;;;;;;;;;4991760;28;20042;-80
2022/12/13 04:59:04;;;;;;;81.07;30.77;;;;;;;;;;4991707;28;20026;-80
2022/12/13 05:01:31;;;;;;;80.57;31.70;;;;;;;;;;4986303;28;20027;-80
2022/12/13 05:03:57;;;;;;;89.75;33.40;;;;;;;;;;5005492;28;20041;-80
2022/12/13 05:06:23;;;;;;;89.70;31.85;;;;;;;;;;4990387;28;20471;-79
2022/12/13 05:08:49;;;;;;;86.20;31.67;;;;;;;;;;4986312;28;21292;-78
2022/12/13 05:11:15;;;;;;;92.68;33.03;;;;;;;;;;4973512;28;20076;-81
2022/12/13 05:13:41;;;;;;;79.30;31.85;;;;;;;;;;4990401;28;20539;-79
2022/12/13 05:16:08;;;;;;;90.05;33.13;;;;;;;;;;4986768;28;20060;-79
2022/12/13 05:18:35;;;;;;;79.50;30.98;;;;;;;;;;4989396;28;20034;-79
2022/12/13 05:21:03;;;;;;;80.55;31.02;;;;;;;;;;5004932;28;20038;-79
2022/12/13 05:23:29;;;;;;;90.57;31.90;;;;;;;;;;4987161;28;20026;-79
2022/12/13 05:25:56;;;;;;;95.93;31.55;;;;;;;;;;4987095;28;20027;-79
2022/12/13 05:28:25;;;;;;;87.13;31.17;;;;;;;;;;4990734;28;20038;-79
2022/12/13 05:30:54;;;;;;;84.80;30.20;;;;;;;;;;4982538;28;20087;-80
2022/12/13 05:33:20;;;;;;;85.82;33.20;;;;;;;;;;4983989;28;20022;-79
2022/12/13 05:35:47;;;;;;;84.30;31.25;;;;;;;;;;4989113;28;20040;-79
2022/12/13 05:38:13;;;;;;;77.50;30.75;;;;;;;;;;4988709;28;20042;-79
2022/12/13 05:40:39;;;;;;;88.47;31.05;;;;;;;;;;4978975;28;20093;-80
2022/12/13 05:43:05;;;;;;;83.88;31.60;;;;;;;;;;5000601;28;20477;-79
2022/12/13 05:45:32;;;;;;;84.20;31.00;;;;;;;;;;4981913;28;20122;-80
2022/12/13 05:47:59;;;;;;;78.03;29.60;;;;;;;;;;4966468;28;20030;-80
2022/12/13 05:50:25;;;;;;;75.22;30.05;;;;;;;;;;4987571;28;20111;-80
2022/12/13 05:52:51;;;;;;;82.22;29.35;;;;;;;;;;4981380;28;20027;-80
2022/12/13 05:55:17;;;;;;;90.25;32.55;;;;;;;;;;4989175;28;20085;-80
2022/12/13 05:57:43;;;;;;;88.68;32.03;;;;;;;;;;4982656;28;20101;-80
2022/12/13 06:00:10;;;;;;;101.50;35.65;;;;;;;;;;4986786;28;20023;-80
2022/12/13 06:02:43;;;;;;;94.90;32.60;;;;;;;;;;4984519;28;20038;-80
2022/12/13 06:05:09;;;;;;;66.03;23.83;;;;;;;;;;4998038;28;20447;-81
2022/12/13 06:07:36;;;;;;;89.85;33.17;;;;;;;;;;4993807;28;20042;-80
2022/12/13 06:10:02;;;;;;;81.32;31.73;;;;;;;;;;4992231;28;20110;-80
2022/12/13 06:12:28;;;;;;;88.47;32.75;;;;;;;;;;4986299;28;20515;-81
2022/12/13 06:14:54;;;;;;;78.65;30.33;;;;;;;;;;4986591;28;20439;-81
2022/12/13 06:17:23;;;;;;;87.95;32.25;;;;;;;;;;4984890;28;20369;-80
2022/12/13 06:19:50;;;;;;;85.68;30.80;;;;;;;;;;4992513;28;20130;-80
2022/12/13 06:22:16;;;;;;;88.15;31.40;;;;;;;;;;4991543;28;20037;-80
2022/12/13 06:24:42;;;;;;;90.47;32.83;;;;;;;;;;4990120;28;20042;-81
2022/12/13 06:27:08;;;;;;;90.05;32.83;;;;;;;;;;4987481;28;20030;-80
2022/12/13 06:29:34;;;;;;;89.55;33.72;;;;;;;;;;4989999;28;20177;-80
2022/12/13 06:32:19;;;;;;;87.95;34.85;;;;;;;;;;5008715;28;20038;-80
2022/12/13 06:35:06;;;;;;;82.22;31.75;;;;;;;;;;5012792;28;20026;-80
2022/12/13 06:40:41;;;;;;;93.00;33.28;;;;;;;;;;5000546;28;20519;-80
2022/12/13 06:43:07;;;;;;;94.68;32.45;;;;;;;;;;5000499;28;20406;-78
2022/12/13 06:45:33;;;;;;;101.38;34.65;;;;;;;;;;5015970;28;20019;-82
2022/12/13 06:48:02;;;;;;;88.43;33.15;;;;;;;;;;5015074;28;20026;-79
2022/12/13 06:50:30;;;;;;;96.57;34.53;;;;;;;;;;5013337;28;20046;-81
2022/12/13 06:52:56;;;;;;;97.72;34.30;;;;;;;;;;5010173;28;20027;-79
2022/12/13 06:55:22;;;;;;;96.28;35.55;;;;;;;;;;4983686;28;20035;-80
2022/12/13 06:57:48;;;;;;;100.05;35.58;;;;;;;;;;4995918;28;20102;-79
2022/12/13 07:00:15;;;;;;;86.13;33.72;;;;;;;;;;5013556;28;20018;-80
2022/12/13 07:02:42;;;;;;;100.95;34.30;;;;;;;;;;5015877;28;20022;-78
2022/12/13 07:05:09;;;;;;;99.47;34.78;;;;;;;;;;5010223;28;20085;-78
2022/12/13 07:07:35;;;;;;;101.13;34.80;;;;;;;;;;4992292;28;20066;-80
2022/12/13 07:10:01;;;;;;;94.20;33.60;;;;;;;;;;4984438;28;20026;-78
2022/12/13 07:12:27;;;;;;;92.82;35.17;;;;;;;;;;4998745;28;20058;-78
2022/12/13 07:14:53;;;;;;;99.63;34.78;;;;;;;;;;4992728;28;20464;-78
2022/12/13 07:17:20;;;;;;;101.95;34.88;;;;;;;;;;4990291;28;20619;-78
2022/12/13 07:19:46;;;;;;;95.47;35.40;;;;;;;;;;5005852;28;20069;-78
2022/12/13 07:22:12;;;;;;;96.90;34.50;;;;;;;;;;4977968;28;20141;-78
2022/12/13 07:24:38;;;;;;;102.20;34.85;;;;;;;;;;4988080;28;20045;-79
2022/12/13 07:27:05;;;;;;;113.63;40.30;;;;;;;;;;4986140;28;20035;-78
2022/12/13 07:29:31;;;;;;;92.13;37.35;;;;;;;;;;5003208;28;20027;-78
2022/12/13 07:31:57;;;;;;;107.50;38.20;;;;;;;;;;4989654;28;20044;-78
2022/12/13 07:34:24;;;;;;;92.75;34.80;;;;;;;;;;4988859;28;20169;-79
2022/12/13 07:36:50;;;;;;;97.15;35.05;;;;;;;;;;4982204;28;20035;-79
2022/12/13 07:39:16;;;;;;;99.72;35.67;;;;;;;;;;5000275;28;20484;-82
2022/12/13 07:41:42;;;;;;;106.43;35.90;;;;;;;;;;4990317;28;20045;-78
2022/12/13 07:44:09;;;;;;;97.10;35.92;;;;;;;;;;4989665;28;20038;-78
2022/12/13 07:46:35;;;;;;;101.38;34.13;;;;;;;;;;4990549;28;20577;-78
2022/12/13 07:49:01;;;;;;;86.65;34.78;;;;;;;;;;4989721;28;20035;-78
2022/12/13 07:51:27;;;;;;;100.15;36.20;;;;;;;;;;5004799;28;20595;-78
2022/12/13 07:53:53;;;;;;;100.30;34.95;;;;;;;;;;4991086;28;20032;-79
2022/12/13 07:56:20;;;;;;;99.65;35.65;;;;;;;;;;4989532;28;20102;-78
2022/12/13 07:58:46;;;;;;;96.18;34.78;;;;;;;;;;4988733;28;20399;-78
2022/12/13 08:01:12;;;;;;;91.20;35.67;;;;;;;;;;4986347;28;20125;-78
2022/12/13 08:03:38;;;;;;;95.28;36.40;;;;;;;;;;4993761;28;20685;-78
2022/12/13 08:06:06;;;;;;;97.35;35.67;;;;;;;;;;4991697;28;20050;-77
2022/12/13 08:08:32;;;;;;;88.72;34.28;;;;;;;;;;4994403;28;20122;-78
2022/12/13 08:11:07;;;;;;;93.00;35.15;;;;;;;;;;4991048;28;20118;-78
2022/12/13 08:13:34;;;;;;;88.85;33.30;;;;;;;;;;4975932;28;20404;-78
2022/12/13 08:16:01;;;;;;;94.00;34.38;;;;;;;;;;5006096;28;20030;-78
2022/12/13 08:18:30;;;;;;;85.78;34.90;;;;;;;;;;4999507;28;20158;-78
2022/12/13 08:21:00;;;;;;;90.07;34.45;;;;;;;;;;4992072;28;20036;-78
2022/12/13 08:23:26;;;;;;;93.40;35.70;;;;;;;;;;5007825;28;20041;-79
2022/12/13 08:25:53;;;;;;;87.50;33.30;;;;;;;;;;4991742;28;20084;-79
2022/12/13 08:28:20;;;;;;;94.05;35.00;;;;;;;;;;4990654;28;20023;-79
2022/12/13 08:30:47;;;;;;;94.80;35.08;;;;;;;;;;5006940;28;20076;-78
2022/12/13 08:33:14;;;;;;;91.80;35.05;;;;;;;;;;4990744;28;20038;-78
2022/12/13 08:35:40;;;;;;;103.13;36.78;;;;;;;;;;4991365;28;20034;-78
2022/12/13 08:38:06;;;;;;;95.40;36.92;;;;;;;;;;4985518;28;20023;-78
2022/12/13 08:40:33;;;;;;;107.05;37.75;;;;;;;;;;4974507;28;20038;-78
2022/12/13 08:42:59;;;;;;;110.45;42.60;;;;;;;;;;4992292;28;20502;-78
2022/12/13 08:45:26;;;;;;;108.50;42.55;;;;;;;;;;4991270;28;20494;-78
2022/12/13 08:47:52;;;;;;;114.93;41.63;;;;;;;;;;4992849;28;20123;-78
2022/12/13 08:50:19;;;;;;;117.40;41.80;;;;;;;;;;4993353;28;20321;-79
2022/12/13 08:52:45;;;;;;;102.20;39.03;;;;;;;;;;4992081;28;20113;-78
2022/12/13 08:55:12;;;;;;;106.88;42.90;;;;;;;;;;4975785;28;20027;-78
2022/12/13 08:57:39;;;;;;;115.57;46.03;;;;;;;;;;4991346;28;20120;-77
2022/12/13 09:00:06;;;;;;;108.88;43.35;;;;;;;;;;5006654;28;20411;-78
2022/12/13 09:02:32;;;;;;;115.20;43.50;;;;;;;;;;4991048;28;20164;-79
2022/12/13 09:04:58;;;;;;;123.72;44.08;;;;;;;;;;4991827;28;20045;-79
2022/12/13 09:07:24;;;;;;;114.95;43.35;;;;;;;;;;4991957;28;20050;-80
2022/12/13 09:09:50;;;;;;;121.90;46.15;;;;;;;;;;4975349;28;20031;-80
2022/12/13 09:12:17;;;;;;;127.47;46.45;;;;;;;;;;4991820;28;20449;-79
2022/12/13 09:14:43;;;;;;;138.30;47.90;;;;;;;;;;4990364;28;20053;-79
2022/12/13 09:17:09;;;;;;;135.38;50.45;;;;;;;;;;4990112;28;20030;-79
2022/12/13 09:19:36;;;;;;;143.27;51.97;;;;;;;;;;4991487;28;20038;-78
2022/12/13 09:22:03;;;;;;;143.20;52.35;;;;;;;;;;5007731;28;20027;-78
2022/12/13 09:24:29;;;;;;;152.13;53.78;;;;;;;;;;4990749;28;20484;-78
2022/12/13 09:26:55;;;;;;;152.30;53.97;;;;;;;;;;4990281;28;20042;-78
2022/12/13 09:29:21;;;;;;;129.43;51.67;;;;;;;;;;4991103;28;20410;-80
2022/12/13 09:31:47;;;;;;;139.98;53.67;;;;;;;;;;4992862;28;20034;-78
2022/12/13 09:34:14;;;;;;;142.82;54.28;;;;;;;;;;4992561;28;20046;-78
2022/12/13 09:36:41;;;;;;;144.57;53.47;;;;;;;;;;4990049;28;20046;-78
2022/12/13 09:39:07;;;;;;;137.10;53.88;;;;;;;;;;4990398;28;20035;-78
2022/12/13 09:41:41;;;;;;;148.57;54.97;;;;;;;;;;4979521;28;20070;-78
2022/12/13 09:44:28;;;;;;;163.35;57.30;;;;;;;;;;4992684;28;20076;-78
2022/12/13 09:46:55;;;;;;;150.25;57.05;;;;;;;;;;5005575;28;20038;-79
2022/12/13 09:49:34;;;;;;;162.75;59.58;;;;;;;;;;4991881;28;20502;-79
2022/12/13 09:52:01;;;;;;;158.88;58.95;;;;;;;;;;4991341;28;20062;-77
2022/12/13 09:54:27;;;;;;;169.40;59.17;;;;;;;;;;4991071;28;20631;-78
2022/12/13 09:56:54;;;;;;;160.85;59.10;;;;;;;;;;4988114;28;20038;-78
2022/12/13 09:59:30;;;;;;;162.05;59.40;;;;;;;;;;4989303;28;20045;-79
2022/12/13 10:02:01;;;;;;;162.60;58.70;;;;;;;;;;5004636;28;20066;-78
2022/12/13 10:04:28;;;;;;;168.70;59.58;;;;;;;;;;4986727;28;20479;-79
2022/12/13 10:06:55;;;;;;;152.32;57.60;;;;;;;;;;4999618;28;20539;-77
2022/12/13 10:09:22;;;;;;;175.43;62.05;;;;;;;;;;5021633;28;20467;-78
2022/12/13 10:11:52;;;;;;;169.05;62.03;;;;;;;;;;5011900;28;20034;-78
2022/12/13 10:14:30;;;;;;;166.85;61.88;;;;;;;;;;5011262;28;20059;-78
2022/12/13 10:16:59;;;;;;;165.65;60.63;;;;;;;;;;4985185;28;20033;-78
2022/12/13 10:19:33;;;;;;;174.18;63.22;;;;;;;;;;4987851;28;20038;-77
2022/12/13 10:22:03;;;;;;;178.38;64.43;;;;;;;;;;4982334;28;20124;-78
2022/12/13 10:24:48;;;;;;;180.43;66.95;;;;;;;;;;4996954;28;20034;-77
2022/12/13 10:27:15;;;;;;;185.90;67.80;;;;;;;;;;4994178;28;20038;-78
2022/12/13 10:30:01;;;;;;;185.10;68.07;;;;;;;;;;4989525;28;20023;-77
2022/12/13 10:32:27;;;;;;;174.18;64.20;;;;;;;;;;4971215;28;20476;-78
2022/12/13 10:34:54;;;;;;;175.20;64.07;;;;;;;;;;4987898;28;20515;-78
2022/12/13 10:37:23;;;;;;;176.57;62.97;;;;;;;;;;4984269;28;20046;-78
2022/12/13 10:39:49;;;;;;;173.65;66.00;;;;;;;;;;4993723;28;20692;-78
2022/12/13 10:42:16;;;;;;;176.60;68.15;;;;;;;;;;4985034;28;20546;-78
2022/12/13 10:44:43;;;;;;;174.60;67.78;;;;;;;;;;4988475;28;20034;-79
2022/12/13 10:47:09;;;;;;;169.35;69.53;;;;;;;;;;4988440;28;20041;-79
2022/12/13 10:49:58;;;;;;;202.70;73.22;;;;;;;;;;4990696;28;20500;-79
2022/12/13 10:52:25;;;;;;;207.90;75.88;;;;;;;;;;4990630;28;20113;-79
2022/12/13 10:54:51;;;;;;;198.15;79.50;;;;;;;;;;4989926;28;20549;-78
2022/12/13 10:57:18;;;;;;;187.98;77.38;;;;;;;;;;4989265;28;20030;-78
2022/12/13 10:59:45;;;;;;;184.82;74.30;;;;;;;;;;4986531;28;20047;-78
2022/12/13 11:02:29;;;;;;;172.57;71.47;;;;;;;;;;4987742;28;20054;-77
2022/12/13 11:04:57;;;;;;;152.25;63.80;;;;;;;;;;4989556;28;20026;-79
2022/12/13 11:07:25;;;;;;;155.75;64.97;;;;;;;;;;4988228;28;20057;-79
2022/12/13 11:09:51;;;;;;;149.00;64.03;;;;;;;;;;4988054;28;20037;-79
2022/12/13 11:12:20;;;;;;;156.98;64.55;;;;;;;;;;4989247;28;20035;-80
2022/12/13 11:14:51;;;;;;;159.45;65.97;;;;;;;;;;4986721;28;20116;-79
2022/12/13 11:17:21;;;;;;;180.48;66.60;;;;;;;;;;4988994;28;20506;-77
2022/12/13 11:19:55;;;;;;;153.73;63.17;;;;;;;;;;4988654;28;20091;-79
2022/12/13 11:22:33;;;;;;;190.02;78.53;;;;;;;;;;4986178;28;20432;-80
2022/12/13 11:25:06;;;;;;;206.18;80.72;;;;;;;;;;4985506;28;20045;-78
2022/12/13 11:27:54;;;;;;;159.80;67.22;;;;;;;;;;4985063;28;20055;-80
2022/12/13 11:30:22;;;;;;;125.45;53.90;;;;;;;;;;4987410;28;20543;-80
2022/12/13 11:32:51;;;;;;;132.55;57.95;;;;;;;;;;4989268;28;20025;-77
2022/12/13 11:35:25;;;;;;;129.27;57.03;;;;;;;;;;4988703;28;20026;-80
2022/12/13 11:38:05;;;;;;;138.82;60.38;;;;;;;;;;4990927;28;20726;-80
2022/12/13 11:40:32;;;;;;;134.93;56.42;;;;;;;;;;4975377;28;20026;-77
2022/12/13 11:43:01;;;;;;;121.60;55.88;;;;;;;;;;5000277;28;20038;-80
2022/12/13 11:45:35;;;;;;;121.18;56.78;;;;;;;;;;4990032;28;20088;-80
2022/12/13 11:48:06;;;;;;;123.60;54.10;;;;;;;;;;4990730;28;20551;-79
2022/12/13 11:50:37;;;;;;;109.85;50.88;;;;;;;;;;4982888;28;20070;-77
2022/12/13 11:53:20;;;;;;;115.38;51.65;;;;;;;;;;4976585;28;20027;-80
2022/12/13 11:56:00;;;;;;;110.18;48.75;;;;;;;;;;4992013;28;20027;-80
2022/12/13 11:58:55;;;;;;;113.78;50.65;;;;;;;;;;4992936;28;20134;-79
2022/12/13 12:01:26;;;;;;;108.72;51.10;;;;;;;;;;4986716;28;20268;-80
2022/12/13 12:03:52;;;;;;;;;;;;;;;;;;4992727;28;20038;-77
2022/12/13 12:06:24;;;;;;;112.53;51.67;;;;;;;;;;4993841;28;19980;-81
2022/12/13 12:08:52;;;;;;;115.75;51.90;;;;;;;;;;4992149;28;20130;-80
2022/12/13 12:11:27;;;;;;;111.80;51.55;;;;;;;;;;4990757;28;21084;-78
2022/12/13 12:13:55;;;;;;;105.43;51.05;;;;;;;;;;4990896;28;20527;-80
2022/12/13 12:16:41;;;;;;;108.50;49.30;;;;;;;;;;4993461;28;20034;-78
2022/12/13 12:19:13;;;;;;;111.43;50.88;;;;;;;;;;4991726;28;20519;-80
2022/12/13 12:21:59;;;;;;;118.47;50.53;;;;;;;;;;4977970;28;20038;-80
2022/12/13 12:24:28;;;;;;;109.15;49.90;;;;;;;;;;4992474;28;20018;-80
2022/12/13 12:26:54;;;;;;;102.65;48.33;;;;;;;;;;4989483;28;20041;-79
2022/12/13 12:29:44;;;;;;;99.13;46.65;;;;;;;;;;4988631;28;20059;-79
2022/12/13 12:32:26;;;;;;;106.68;50.05;;;;;;;;;;4974431;28;20023;-79
2022/12/13 12:35:12;;;;;;;109.45;47.20;;;;;;;;;;4981010;28;20053;-78
2022/12/13 12:37:38;;;;;;;88.97;43.28;;;;;;;;;;5000679;28;20531;-79
2022/12/13 12:40:23;;;;;;;95.07;44.33;;;;;;;;;;4991656;28;20504;-79
2022/12/13 12:43:06;;;;;;;91.45;44.65;;;;;;;;;;4991443;28;20031;-78
2022/12/13 12:45:41;;;;;;;85.45;42.20;;;;;;;;;;4984326;28;20563;-79
2022/12/13 12:48:19;;;;;;;88.65;42.92;;;;;;;;;;4988742;28;20045;-79
2022/12/13 12:51:04;;;;;;;90.10;43.45;;;;;;;;;;4993377;28;20500;-76
2022/12/13 12:53:37;;;;;;;84.18;43.08;;;;;;;;;;4994510;28;20030;-77
2022/12/13 12:56:09;;;;;;;91.53;42.40;;;;;;;;;;4998974;28;20041;-79
2022/12/13 12:58:45;;;;;;;88.03;42.58;;;;;;;;;;4995200;28;20038;-80
2022/12/13 13:01:11;;;;;;;89.22;42.90;;;;;;;;;;5000334;28;20026;-80
2022/12/13 13:03:39;;;;;;;84.45;41.88;;;;;;;;;;4995842;28;20396;-79
2022/12/13 13:06:05;;;;;;;91.00;44.15;;;;;;;;;;4982507;28;20032;-79
2022/12/13 13:08:34;;;;;;;99.05;45.63;;;;;;;;;;5009715;28;20086;-80
2022/12/13 13:11:01;;;;;;;95.85;46.42;;;;;;;;;;4993506;28;20022;-80
2022/12/13 13:13:33;;;;;;;101.00;44.78;;;;;;;;;;4995058;28;20042;-78
2022/12/13 13:16:00;;;;;;;94.40;45.72;;;;;;;;;;4989268;28;20034;-80
2022/12/13 13:18:42;;;;;;;95.45;45.15;;;;;;;;;;4973928;28;20038;-79
2022/12/13 13:21:24;;;;;;;101.70;44.22;;;;;;;;;;4993211;28;20126;-79
2022/12/13 13:24:06;;;;;;;98.47;44.78;;;;;;;;;;4992574;28;20089;-80
2022/12/13 13:26:32;;;;;;;91.60;44.35;;;;;;;;;;4986277;28;20033;-81
2022/12/13 13:29:17;;;;;;;105.95;44.88;;;;;;;;;;4988627;28;20036;-81
2022/12/13 13:31:55;;;;;;;117.88;44.78;;;;;;;;;;4997468;28;20022;-80
2022/12/13 13:34:35;;;;;;;109.03;46.50;;;;;;;;;;4999350;28;20034;-80
2022/12/13 13:37:03;;;;;;;117.82;46.88;;;;;;;;;;4991909;28;20027;-80
2022/12/13 13:39:35;;;;;;;114.60;47.83;;;;;;;;;;4970547;28;20813;-80
2022/12/13 13:42:09;;;;;;;104.38;46.05;;;;;;;;;;4985426;28;20038;-80
2022/12/13 13:44:41;;;;;;;104.03;44.33;;;;;;;;;;4990663;28;20049;-79
2022/12/13 13:47:12;;;;;;;94.90;43.78;;;;;;;;;;4992539;28;20101;-79
2022/12/13 13:49:46;;;;;;;94.78;43.55;;;;;;;;;;4992491;28;20054;-80
2022/12/13 13:52:19;;;;;;;91.75;43.28;;;;;;;;;;4989135;28;20435;-80
2022/12/13 13:54:45;;;;;;;92.38;43.30;;;;;;;;;;4988650;28;20502;-80
2022/12/13 13:57:17;;;;;;;92.43;43.80;;;;;;;;;;4981758;28;20395;-80
2022/12/13 13:59:58;;;;;;;92.85;43.28;;;;;;;;;;4986552;28;20038;-81
2022/12/13 14:02:43;;;;;;;92.72;42.80;;;;;;;;;;4985727;28;20392;-80
2022/12/13 14:05:13;;;;;;;88.15;42.55;;;;;;;;;;4983863;28;20097;-80
2022/12/13 14:07:48;;;;;;;96.60;42.97;;;;;;;;;;4986638;28;20113;-80
2022/12/13 14:10:33;;;;;;;90.85;41.85;;;;;;;;;;4987894;28;20038;-79
2022/12/13 14:13:32;;;;;;;85.13;42.13;;;;;;;;;;4994318;28;20057;-80
2022/12/13 14:16:18;;;;;;;90.18;41.75;;;;;;;;;;4974183;28;20046;-80
2022/12/13 14:19:03;;;;;;;90.95;41.38;;;;;;;;;;4983514;28;20028;-80
2022/12/13 14:21:39;;;;;;;88.90;41.72;;;;;;;;;;5001741;28;20554;-80
2022/12/13 14:24:14;;;;;;;84.97;43.03;;;;;;;;;;4986622;28;20034;-81
2022/12/13 14:26:50;;;;;;;85.32;41.97;;;;;;;;;;4984709;28;20034;-80
2022/12/13 14:29:18;;;;;;;86.97;41.42;;;;;;;;;;4966983;28;20503;-80
2022/12/13 14:31:45;;;;;;;90.43;42.03;;;;;;;;;;4980155;28;20030;-80
2022/12/13 14:34:28;;;;;;;103.50;49.65;;;;;;;;;;4985085;28;20538;-77
2022/12/13 14:36:59;;;;;;;130.73;61.83;;;;;;;;;;4977983;28;20030;-79